createdAt,value
2018-05-06T00:00:35.736Z,101906.95
2018-05-06T00:03:01.586Z,101911.39
2018-05-06T00:05:27.460Z,101904.02
2018-05-06T00:07:53.341Z,101904.94
2018-05-06T00:10:19.215Z,101899.66
2018-05-06T00:12:45.083Z,101901.37
2018-05-06T00:15:10.977Z,101898.27
2018-05-06T00:17:36.845Z,101898.78
2018-05-06T00:20:02.749Z,101891.37
2018-05-06T00:22:28.606Z,101901.02
2018-05-06T00:24:54.478Z,101901.00
2018-05-06T00:27:20.374Z,101898.30
2018-05-06T00:29:46.224Z,101903.59
2018-05-06T00:32:12.085Z,101907.98
2018-05-06T00:34:37.957Z,101914.55
2018-05-06T00:37:03.839Z,101903.63
2018-05-06T00:39:29.699Z,101907.58
2018-05-06T00:41:55.561Z,101908.08
2018-05-06T00:44:21.418Z,101908.16
2018-05-06T00:47:02.221Z,101910.31
2018-05-06T00:49:28.091Z,101909.08
2018-05-06T00:51:53.984Z,101908.59
2018-05-06T00:54:32.172Z,101911.67
2018-05-06T00:56:58.036Z,101913.44
2018-05-06T00:59:23.907Z,101912.19
2018-05-06T01:01:49.793Z,101912.66
2018-05-06T01:04:15.657Z,101913.95
2018-05-06T01:06:41.546Z,101916.16
2018-05-06T01:09:07.391Z,101919.70
2018-05-06T01:11:33.237Z,101924.95
2018-05-06T01:13:59.085Z,101921.92
2018-05-06T01:16:24.965Z,101932.91
2018-05-06T01:18:50.819Z,101935.11
2018-05-06T01:21:16.704Z,101931.61
2018-05-06T01:23:42.569Z,101929.44
2018-05-06T01:26:08.460Z,101927.67
2018-05-06T01:28:34.320Z,101927.25
2018-05-06T01:31:00.189Z,101924.13
2018-05-06T01:33:26.047Z,101928.52
2018-05-06T01:35:51.924Z,101919.35
2018-05-06T01:38:17.785Z,101922.42
2018-05-06T01:40:43.647Z,101921.55
2018-05-06T01:43:09.528Z,101920.69
2018-05-06T01:45:35.376Z,101916.78
2018-05-06T01:48:01.258Z,101918.11
2018-05-06T01:50:27.103Z,101912.48
2018-05-06T01:52:53.000Z,101916.44
2018-05-06T01:55:18.859Z,101917.75
2018-05-06T01:57:44.690Z,101910.73
2018-05-06T02:00:10.547Z,101910.27
2018-05-06T02:02:36.373Z,101905.01
2018-05-06T02:05:02.217Z,101906.33
2018-05-06T02:07:28.062Z,101907.17
2018-05-06T02:09:53.934Z,101905.89
2018-05-06T02:12:19.773Z,101911.16
2018-05-06T02:14:45.639Z,101909.84
2018-05-06T02:17:11.507Z,101912.02
2018-05-06T02:19:37.399Z,101921.29
2018-05-06T02:22:03.241Z,101922.59
2018-05-06T02:24:29.098Z,101925.22
2018-05-06T02:26:55.642Z,101914.77
2018-05-06T02:29:21.475Z,101914.34
2018-05-06T02:31:47.343Z,101914.32
2018-05-06T02:34:13.234Z,101924.41
2018-05-06T02:36:39.074Z,101927.90
2018-05-06T02:39:04.925Z,101921.37
2018-05-06T02:41:30.801Z,101930.53
2018-05-06T02:43:56.665Z,101920.97
2018-05-06T02:46:22.538Z,101920.96
2018-05-06T02:48:48.419Z,101918.37
2018-05-06T02:51:14.267Z,101917.48
2018-05-06T02:53:40.116Z,101908.77
2018-05-06T02:56:05.955Z,101907.89
2018-05-06T02:58:31.813Z,101913.55
2018-05-06T03:00:57.659Z,101908.33
2018-05-06T03:03:23.534Z,101899.17
2018-05-06T03:05:49.379Z,101903.97
2018-05-06T03:08:15.223Z,101906.16
2018-05-06T03:10:41.074Z,101902.23
2018-05-06T03:13:06.972Z,101909.20
2018-05-06T03:15:32.813Z,101912.69
2018-05-06T03:17:58.676Z,101909.63
2018-05-06T03:20:24.534Z,101912.70
2018-05-06T03:22:50.377Z,101910.05
2018-05-06T03:25:16.250Z,101915.28
2018-05-06T03:27:42.107Z,101911.78
2018-05-06T03:30:07.958Z,101909.59
2018-05-06T03:32:33.822Z,101915.24
2018-05-06T03:34:59.694Z,101921.35
2018-05-06T03:37:25.554Z,101914.81
2018-05-06T03:39:51.412Z,101913.97
2018-05-06T03:42:17.266Z,101921.34
2018-05-06T03:44:43.110Z,101917.88
2018-05-06T03:47:08.965Z,101920.03
2018-05-06T03:49:34.848Z,101919.59
2018-05-06T03:52:00.690Z,101922.66
2018-05-06T03:54:26.552Z,101919.16
2018-05-06T03:57:04.764Z,101914.34
2018-05-06T03:59:42.941Z,101914.78
2018-05-06T04:05:12.013Z,101914.77
2018-05-06T04:07:37.842Z,101914.33
2018-05-06T04:10:03.700Z,101916.09
2018-05-06T04:12:29.568Z,101914.36
2018-05-06T04:14:55.427Z,101920.48
2018-05-06T04:17:21.284Z,101916.98
2018-05-06T04:19:47.158Z,101914.34
2018-05-06T04:22:13.017Z,101919.60
2018-05-06T04:24:38.857Z,101913.08
2018-05-06T04:27:04.725Z,101915.70
2018-05-06T04:29:30.583Z,101914.80
2018-05-06T04:31:56.404Z,101923.96
2018-05-06T04:34:22.281Z,101922.21
2018-05-06T04:36:48.171Z,101922.22
2018-05-06T04:39:14.025Z,101929.20
2018-05-06T04:41:39.869Z,101926.59
2018-05-06T04:44:05.725Z,101926.18
2018-05-06T04:46:31.590Z,101931.41
2018-05-06T04:48:57.440Z,101928.80
2018-05-06T04:51:23.289Z,101935.77
2018-05-06T04:53:49.141Z,101927.05
2018-05-06T04:56:14.995Z,101929.69
2018-05-06T04:58:40.839Z,101928.83
2018-05-06T05:01:06.776Z,101933.61
2018-05-06T05:03:32.618Z,101931.00
2018-05-06T05:05:58.467Z,101934.49
2018-05-06T05:08:24.312Z,101938.41
2018-05-06T05:10:50.205Z,101941.05
2018-05-06T05:13:16.022Z,101935.80
2018-05-06T05:15:41.887Z,101935.36
2018-05-06T05:18:07.756Z,101933.63
2018-05-06T05:20:33.628Z,101942.77
2018-05-06T05:22:59.494Z,101943.20
2018-05-06T05:25:25.354Z,101944.06
2018-05-06T05:27:51.223Z,101943.18
2018-05-06T05:30:17.093Z,101941.44
2018-05-06T05:32:42.951Z,101937.94
2018-05-06T05:35:08.807Z,101932.23
2018-05-06T05:37:34.667Z,101925.66
2018-05-06T05:40:00.524Z,101921.30
2018-05-06T05:42:26.388Z,101925.23
2018-05-06T05:44:52.254Z,101931.77
2018-05-06T05:47:18.104Z,101933.47
2018-05-06T05:49:43.957Z,101934.73
2018-05-06T05:52:09.795Z,101943.44
2018-05-06T05:54:35.680Z,101938.21
2018-05-06T05:57:01.526Z,101932.93
2018-05-06T05:59:27.373Z,101943.30
2018-05-06T06:01:53.229Z,101940.62
2018-05-06T06:04:19.111Z,101937.53
2018-05-06T06:06:44.951Z,101931.80
2018-05-06T06:09:10.827Z,101933.00
2018-05-06T06:11:36.681Z,101936.41
2018-05-06T06:14:02.553Z,101937.61
2018-05-06T06:16:28.438Z,101935.84
2018-05-06T06:18:54.306Z,101946.27
2018-05-06T06:21:20.185Z,101948.48
2018-05-06T06:23:46.056Z,101948.91
2018-05-06T06:26:11.952Z,101947.00
2018-05-06T06:28:37.804Z,101948.65
2018-05-06T06:31:03.659Z,101941.95
2018-05-06T06:33:29.543Z,101945.67
2018-05-06T06:35:55.401Z,101946.31
2018-05-06T06:38:21.287Z,101943.48
2018-05-06T06:40:47.150Z,101946.35
2018-05-06T06:43:13.012Z,101942.19
2018-05-06T06:45:38.858Z,101949.63
2018-05-06T06:48:04.782Z,101945.48
2018-05-06T06:50:30.593Z,101950.81
2018-05-06T06:52:56.528Z,101949.85
2018-05-06T06:55:22.507Z,101949.05
2018-05-06T06:57:48.394Z,101948.52
2018-05-06T07:00:14.252Z,101949.33
2018-05-06T07:02:55.091Z,101954.00
2018-05-06T07:05:20.920Z,101953.22
2018-05-06T07:07:46.755Z,101949.64
2018-05-06T07:10:12.610Z,101949.70
2018-05-06T07:12:38.446Z,101949.30
2018-05-06T07:15:04.321Z,101950.17
2018-05-06T07:17:30.176Z,101943.90
2018-05-06T07:19:56.043Z,101952.42
2018-05-06T07:22:21.879Z,101953.68
2018-05-06T07:24:47.733Z,101955.75
2018-05-06T07:27:13.569Z,101958.86
2018-05-06T07:29:39.409Z,101958.72
2018-05-06T07:32:05.294Z,101953.86
2018-05-06T07:34:31.188Z,101944.64
2018-05-06T07:36:57.030Z,101951.50
2018-05-06T07:39:22.868Z,101948.53
2018-05-06T07:41:48.748Z,101944.70
2018-05-06T07:44:14.652Z,101951.58
2018-05-06T07:46:40.538Z,101964.04
2018-05-06T07:49:06.496Z,101957.50
2018-05-06T07:51:32.290Z,101969.95
2018-05-06T07:53:58.177Z,101968.70
2018-05-06T07:56:24.042Z,101968.67
2018-05-06T07:58:49.902Z,101964.20
2018-05-06T08:01:15.820Z,101953.38
2018-05-06T08:03:41.653Z,101957.94
2018-05-06T08:06:07.727Z,101964.36
2018-05-06T08:08:33.567Z,101965.67
2018-05-06T08:10:59.401Z,101963.88
2018-05-06T08:13:25.255Z,101960.09
2018-05-06T08:18:43.879Z,101961.13
2018-05-06T08:21:09.741Z,101958.64
2018-05-06T08:23:35.619Z,101957.36
2018-05-06T08:26:01.469Z,101961.41
2018-05-06T08:28:27.343Z,101954.30
2018-05-06T08:30:53.219Z,101958.56
2018-05-06T08:33:19.103Z,101957.88
2018-05-06T08:35:44.973Z,101960.07
2018-05-06T08:38:10.867Z,101953.77
2018-05-06T08:40:36.723Z,101959.13
2018-05-06T08:43:02.571Z,101957.48
2018-05-06T08:45:28.448Z,101950.81
2018-05-06T08:47:54.293Z,101950.19
2018-05-06T08:50:20.174Z,101947.53
2018-05-06T08:52:46.069Z,101946.77
2018-05-06T08:55:11.953Z,101947.34
2018-05-06T08:57:37.848Z,101943.40
2018-05-06T09:00:03.730Z,101939.53
2018-05-06T09:02:29.599Z,101930.23
2018-05-06T09:04:55.428Z,101938.81
2018-05-06T09:07:21.308Z,101932.53
2018-05-06T09:09:47.186Z,101941.12
2018-05-06T09:12:13.097Z,101933.22
2018-05-06T09:14:38.968Z,101933.86
2018-05-06T09:17:04.843Z,101927.49
2018-05-06T09:19:30.706Z,101925.88
2018-05-06T09:21:56.567Z,101933.09
2018-05-06T09:24:22.449Z,101924.84
2018-05-06T09:26:48.357Z,101918.67
2018-05-06T09:29:14.244Z,101925.31
2018-05-06T09:31:40.119Z,101927.73
2018-05-06T09:34:05.997Z,101924.92
2018-05-06T09:36:31.864Z,101928.41
2018-05-06T09:38:57.729Z,101930.41
2018-05-06T09:41:23.628Z,101920.88
2018-05-06T09:43:49.496Z,101918.03
2018-05-06T09:46:15.342Z,101918.28
2018-05-06T09:48:41.235Z,101926.92
2018-05-06T09:51:07.561Z,101918.66
2018-05-06T09:53:33.439Z,101916.50
2018-05-06T09:55:59.314Z,101912.56
2018-05-06T09:58:25.195Z,101911.50
2018-05-06T10:00:51.053Z,101908.56
2018-05-06T10:03:16.982Z,101911.70
2018-05-06T10:05:42.818Z,101911.63
2018-05-06T10:08:08.678Z,101906.76
2018-05-06T10:10:34.545Z,101910.02
2018-05-06T10:13:00.400Z,101910.09
2018-05-06T10:15:26.277Z,101904.23
2018-05-06T10:17:52.136Z,101906.48
2018-05-06T10:20:17.995Z,101904.09
2018-05-06T10:22:43.880Z,101905.71
2018-05-06T10:25:09.736Z,101901.17
2018-05-06T10:27:35.592Z,101902.22
2018-05-06T10:30:01.465Z,101893.51
2018-05-06T10:32:27.340Z,101886.83
2018-05-06T10:34:53.197Z,101882.80
2018-05-06T10:37:19.062Z,101882.41
2018-05-06T10:39:44.900Z,101882.34
2018-05-06T10:42:10.780Z,101876.45
2018-05-06T10:44:36.624Z,101878.73
2018-05-06T10:47:02.605Z,101876.59
2018-05-06T10:49:28.396Z,101870.06
2018-05-06T10:51:54.249Z,101863.14
2018-05-06T10:54:20.122Z,101867.66
2018-05-06T10:56:46.005Z,101858.90
2018-05-06T10:59:11.868Z,101850.51
2018-05-06T11:01:37.756Z,101855.11
2018-05-06T11:04:03.620Z,101846.98
2018-05-06T11:06:29.477Z,101843.03
2018-05-06T11:08:55.370Z,101842.32
2018-05-06T11:11:21.207Z,101836.23
2018-05-06T11:13:47.106Z,101833.30
2018-05-06T11:16:13.085Z,101827.66
2018-05-06T11:18:38.984Z,101830.52
2018-05-06T11:21:04.829Z,101842.19
2018-05-06T11:23:30.726Z,101836.80
2018-05-06T11:25:56.598Z,101824.53
2018-05-06T11:28:22.443Z,101823.20
2018-05-06T11:30:48.305Z,101828.56
2018-05-06T11:33:14.158Z,101824.38
2018-05-06T11:35:40.019Z,101825.58
2018-05-06T11:38:06.696Z,101819.96
2018-05-06T11:40:32.584Z,101827.88
2018-05-06T11:42:58.443Z,101815.41
2018-05-06T11:45:24.307Z,101814.69
2018-05-06T11:47:50.178Z,101812.52
2018-05-06T11:50:16.013Z,101816.26
2018-05-06T11:52:41.891Z,101813.27
2018-05-06T11:55:07.727Z,101809.19
2018-05-06T11:57:33.595Z,101799.80
2018-05-06T11:59:59.446Z,101793.54
2018-05-06T12:02:25.389Z,101802.08
2018-05-06T12:04:51.194Z,101795.38
2018-05-06T12:07:17.069Z,101791.27
2018-05-06T12:09:42.921Z,101789.19
2018-05-06T12:12:08.843Z,101784.33
2018-05-06T12:14:34.690Z,101776.34
2018-05-06T12:17:00.569Z,101775.98
2018-05-06T12:19:26.427Z,101769.58
2018-05-06T12:21:52.360Z,101773.14
2018-05-06T12:24:18.179Z,101766.97
2018-05-06T12:26:44.024Z,101759.55
2018-05-06T12:29:09.917Z,101764.95
2018-05-06T12:31:35.838Z,101767.04
2018-05-06T12:34:01.738Z,101762.22
2018-05-06T12:36:27.594Z,101762.23
2018-05-06T12:38:53.456Z,101757.27
2018-05-06T12:41:19.318Z,101755.97
2018-05-06T12:43:45.176Z,101754.67
2018-05-06T12:46:11.048Z,101757.92
2018-05-06T12:48:36.904Z,101748.08
2018-05-06T12:51:02.757Z,101746.83
2018-05-06T12:53:28.609Z,101744.48
2018-05-06T12:55:54.481Z,101742.85
2018-05-06T12:58:20.339Z,101742.41
2018-05-06T13:00:46.198Z,101729.86
2018-05-06T13:03:12.071Z,101733.67
2018-05-06T13:05:37.936Z,101733.61
2018-05-06T13:08:03.835Z,101721.73
2018-05-06T13:10:29.738Z,101732.13
2018-05-06T13:12:55.581Z,101723.31
2018-05-06T13:15:21.456Z,101709.62
2018-05-06T13:17:47.318Z,101714.42
2018-05-06T13:20:13.204Z,101712.79
2018-05-06T13:22:39.150Z,101713.64
2018-05-06T13:25:05.011Z,101704.95
2018-05-06T13:27:30.910Z,101703.50
2018-05-06T13:29:56.757Z,101706.55
2018-05-06T13:32:22.700Z,101709.00
2018-05-06T13:34:48.574Z,101699.95
2018-05-06T13:37:14.437Z,101699.23
2018-05-06T13:39:40.306Z,101693.16
2018-05-06T13:42:06.226Z,101683.64
2018-05-06T13:44:32.078Z,101685.89
2018-05-06T13:46:57.959Z,101692.56
2018-05-06T13:49:23.844Z,101684.09
2018-05-06T13:51:49.738Z,101683.12
2018-05-06T13:54:15.625Z,101682.81
2018-05-06T13:56:41.483Z,101674.15
2018-05-06T13:59:07.339Z,101676.76
2018-05-06T14:01:33.207Z,101672.67
2018-05-06T14:03:59.092Z,101670.11
2018-05-06T14:06:24.934Z,101677.09
2018-05-06T14:08:50.821Z,101667.72
2018-05-06T14:11:16.644Z,101670.36
2018-05-06T14:13:42.480Z,101665.45
2018-05-06T14:16:08.346Z,101666.45
2018-05-06T14:18:34.235Z,101663.28
2018-05-06T14:21:00.128Z,101662.62
2018-05-06T14:23:25.981Z,101661.80
2018-05-06T14:25:51.860Z,101662.52
2018-05-06T14:28:17.725Z,101654.61
2018-05-06T14:30:43.596Z,101655.69
2018-05-06T14:33:09.433Z,101659.90
2018-05-06T14:35:35.305Z,101649.25
2018-05-06T14:38:01.144Z,101643.52
2018-05-06T14:40:27.034Z,101645.77
2018-05-06T14:42:52.914Z,101647.05
2018-05-06T14:45:18.765Z,101639.55
2018-05-06T14:47:57.127Z,101632.45
2018-05-06T14:50:22.968Z,101638.59
2018-05-06T14:52:48.819Z,101635.95
2018-05-06T14:55:14.658Z,101637.69
2018-05-06T14:57:40.547Z,101633.17
2018-05-06T15:00:06.407Z,101631.34
2018-05-06T15:02:32.271Z,101633.19
2018-05-06T15:04:58.116Z,101632.92
2018-05-06T15:07:24.018Z,101633.28
2018-05-06T15:09:49.885Z,101618.45
2018-05-06T15:12:15.741Z,101616.54
2018-05-06T15:14:41.601Z,101625.72
2018-05-06T15:17:07.491Z,101618.28
2018-05-06T15:19:33.359Z,101613.94
2018-05-06T15:21:59.243Z,101614.13
2018-05-06T15:24:25.113Z,101612.87
2018-05-06T15:26:50.967Z,101609.70
2018-05-06T15:29:16.841Z,101613.25
2018-05-06T15:31:42.688Z,101596.23
2018-05-06T15:34:08.593Z,101608.02
2018-05-06T15:36:34.448Z,101614.07
2018-05-06T15:39:00.304Z,101614.81
2018-05-06T15:41:26.168Z,101601.38
2018-05-06T15:43:52.030Z,101606.05
2018-05-06T15:46:17.908Z,101603.83
2018-05-06T15:48:43.762Z,101592.51
2018-05-06T15:51:09.654Z,101608.47
2018-05-06T15:53:35.525Z,101598.67
2018-05-06T15:56:01.355Z,101598.16
2018-05-06T15:58:27.315Z,101590.23
2018-05-06T16:00:53.256Z,101600.56
2018-05-06T16:03:31.647Z,101589.77
2018-05-06T16:05:57.483Z,101591.19
2018-05-06T16:08:23.357Z,101591.58
2018-05-06T16:10:49.211Z,101598.31
2018-05-06T16:13:15.088Z,101582.49
2018-05-06T16:15:40.960Z,101580.67
2018-05-06T16:18:06.844Z,101580.98
2018-05-06T16:20:32.720Z,101576.81
2018-05-06T16:22:58.671Z,101574.57
2018-05-06T16:25:25.328Z,101572.72
2018-05-06T16:27:51.192Z,101572.11
2018-05-06T16:30:17.049Z,101576.67
2018-05-06T16:32:42.889Z,101571.44
2018-05-06T16:35:08.818Z,101569.91
2018-05-06T16:37:34.675Z,101570.75
2018-05-06T16:40:00.600Z,101574.91
2018-05-06T16:42:26.510Z,101575.75
2018-05-06T16:44:52.394Z,101571.53
2018-05-06T16:47:18.273Z,101574.17
2018-05-06T16:49:44.212Z,101575.55
2018-05-06T16:52:10.103Z,101572.22
2018-05-06T16:54:35.971Z,101575.35
2018-05-06T16:57:01.831Z,101578.08
2018-05-06T16:59:27.726Z,101571.35
2018-05-06T17:01:56.454Z,101564.89
2018-05-06T17:04:22.485Z,101572.11
2018-05-06T17:06:48.376Z,101567.44
2018-05-06T17:09:14.249Z,101563.66
2018-05-06T17:11:40.154Z,101566.15
2018-05-06T17:14:06.017Z,101566.78
2018-05-06T17:16:31.923Z,101565.99
2018-05-06T17:18:57.825Z,101562.81
2018-05-06T17:21:23.749Z,101561.80
2018-05-06T17:23:49.649Z,101573.34
2018-05-06T17:26:15.567Z,101580.22
2018-05-06T17:31:23.377Z,101573.80
2018-05-06T17:33:49.250Z,101579.68
2018-05-06T17:36:15.170Z,101577.77
2018-05-06T17:38:41.042Z,101577.30
2018-05-06T17:41:06.890Z,101575.69
2018-05-06T17:43:32.820Z,101576.31
2018-05-06T17:45:58.759Z,101575.52
2018-05-06T17:48:25.263Z,101575.27
2018-05-06T17:50:51.165Z,101573.74
2018-05-06T17:53:17.083Z,101578.28
2018-05-06T17:55:43.032Z,101571.68
2018-05-06T17:58:08.993Z,101579.35
2018-05-06T18:00:34.898Z,101573.53
2018-05-06T18:03:00.839Z,101581.69
2018-05-06T18:05:26.728Z,101591.88
2018-05-06T18:07:52.649Z,101587.20
2018-05-06T18:10:18.539Z,101583.82
2018-05-06T18:12:44.396Z,101587.50
2018-05-06T18:15:25.263Z,101592.55
2018-05-06T18:17:52.111Z,101592.80
2018-05-06T18:20:18.034Z,101593.50
2018-05-06T18:22:43.940Z,101589.75
2018-05-06T18:25:10.805Z,101596.62
2018-05-06T18:27:36.695Z,101601.53
2018-05-06T18:30:03.411Z,101595.02
2018-05-06T18:32:29.325Z,101600.13
2018-05-06T18:34:55.251Z,101589.88
2018-05-06T18:37:21.150Z,101597.47
2018-05-06T18:39:47.069Z,101596.20
2018-05-06T18:42:13.006Z,101603.70
2018-05-06T18:44:38.883Z,101606.44
2018-05-06T18:47:04.925Z,101608.55
2018-05-06T18:49:30.809Z,101598.80
2018-05-06T18:51:56.676Z,101606.05
2018-05-06T18:54:22.565Z,101603.45
2018-05-06T18:56:48.411Z,101608.43
2018-05-06T18:59:14.297Z,101615.22
2018-05-06T19:01:40.127Z,101611.27
2018-05-06T19:04:06.063Z,101606.09
2018-05-06T19:06:31.995Z,101611.41
2018-05-06T19:08:58.887Z,101621.88
2018-05-06T19:11:25.717Z,101617.72
2018-05-06T19:13:52.768Z,101622.59
2018-05-06T19:16:19.643Z,101631.06
2018-05-06T19:18:46.436Z,101627.25
2018-05-06T19:21:12.460Z,101625.04
2018-05-06T19:23:38.397Z,101632.91
2018-05-06T19:26:04.376Z,101624.29
2018-05-06T19:28:30.326Z,101626.42
2018-05-06T19:30:57.165Z,101627.97
2018-05-06T19:33:24.125Z,101627.86
2018-05-06T19:35:50.069Z,101626.70
2018-05-06T19:38:16.703Z,101627.22
2018-05-06T19:40:42.693Z,101631.27
2018-05-06T19:43:08.551Z,101632.19
2018-05-06T19:45:34.472Z,101640.63
2018-05-06T19:48:00.336Z,101627.14
2018-05-06T19:50:26.269Z,101637.89
2018-05-06T19:52:52.140Z,101639.44
2018-05-06T19:55:19.593Z,101639.28
2018-05-06T19:57:45.493Z,101637.22
2018-05-06T20:00:13.145Z,101641.59
2018-05-06T20:02:39.920Z,101642.97
2018-05-06T20:05:05.805Z,101640.28
2018-05-06T20:07:31.743Z,101633.66
2018-05-06T20:09:57.644Z,101639.02
2018-05-06T20:12:23.553Z,101645.55
2018-05-06T20:14:50.310Z,101642.41
2018-05-06T20:17:17.553Z,101641.13
2018-05-06T20:19:44.066Z,101636.23
2018-05-06T20:22:09.937Z,101638.81
2018-05-06T20:24:35.856Z,101636.38
2018-05-06T20:27:01.897Z,101639.08
2018-05-06T20:29:27.803Z,101638.09
2018-05-06T20:31:53.709Z,101636.02
2018-05-06T20:34:19.609Z,101639.50
2018-05-06T20:36:45.540Z,101637.78
2018-05-06T20:39:11.531Z,101644.83
2018-05-06T20:41:38.432Z,101642.33
2018-05-06T20:44:04.329Z,101647.37
2018-05-06T20:46:31.699Z,101641.23
2018-05-06T20:48:57.639Z,101646.02
2018-05-06T20:51:23.495Z,101642.37
2018-05-06T20:53:49.366Z,101642.50
2018-05-06T20:56:15.905Z,101646.03
2018-05-06T20:58:41.800Z,101646.97
2018-05-06T21:01:07.713Z,101643.56
2018-05-06T21:03:34.073Z,101639.30
2018-05-06T21:05:59.992Z,101636.86
2018-05-06T21:08:25.870Z,101634.97
2018-05-06T21:10:51.863Z,101640.17
2018-05-06T21:13:17.765Z,101635.68
2018-05-06T21:15:43.602Z,101635.19
2018-05-06T21:18:09.483Z,101634.56
2018-05-06T21:20:35.399Z,101635.82
2018-05-06T21:23:01.307Z,101633.66
2018-05-06T21:25:27.218Z,101635.19
2018-05-06T21:27:53.140Z,101634.11
2018-05-06T21:30:19.035Z,101637.44
2018-05-06T21:32:44.928Z,101634.23
2018-05-06T21:35:10.803Z,101637.48
2018-05-06T21:37:36.656Z,101631.16
2018-05-06T21:40:02.576Z,101635.64
2018-05-06T21:42:28.444Z,101635.80
2018-05-06T21:44:54.344Z,101630.92
2018-05-06T21:47:20.196Z,101626.91
2018-05-06T21:49:46.120Z,101633.16
2018-05-06T21:52:11.967Z,101625.55
2018-05-06T21:54:37.879Z,101632.20
2018-05-06T21:57:03.748Z,101629.15
2018-05-06T21:59:29.610Z,101631.44
2018-05-06T22:01:55.505Z,101635.69
2018-05-06T22:04:21.395Z,101635.36
2018-05-06T22:06:47.311Z,101638.33
2018-05-06T22:09:13.707Z,101631.47
2018-05-06T22:11:39.615Z,101629.31
2018-05-06T22:14:05.481Z,101632.44
2018-05-06T22:16:31.377Z,101630.58
2018-05-06T22:18:57.257Z,101633.67
2018-05-06T22:21:23.149Z,101637.27
2018-05-06T22:23:49.028Z,101632.41
2018-05-06T22:26:14.935Z,101635.14
2018-05-06T22:28:40.866Z,101636.47
2018-05-06T22:31:06.772Z,101635.27
2018-05-06T22:33:33.825Z,101639.97
2018-05-06T22:35:59.713Z,101639.16
2018-05-06T22:38:25.625Z,101643.53
2018-05-06T22:40:51.591Z,101639.75
2018-05-06T22:43:17.495Z,101636.08
2018-05-06T22:45:43.361Z,101640.39
2018-05-06T22:48:09.241Z,101640.09
2018-05-06T22:50:35.135Z,101635.26
2018-05-06T22:53:01.031Z,101630.59
2018-05-06T22:55:26.929Z,101632.42
2018-05-06T22:57:52.797Z,101632.66
2018-05-06T23:00:18.708Z,101633.37
2018-05-06T23:02:44.590Z,101627.83
2018-05-06T23:05:10.561Z,101623.53
2018-05-06T23:07:36.492Z,101618.95
2018-05-06T23:10:02.370Z,101625.88
2018-05-06T23:12:28.321Z,101619.16
2018-05-06T23:14:54.212Z,101615.90
2018-05-06T23:17:20.112Z,101615.94
2018-05-06T23:19:46.034Z,101613.02
2018-05-06T23:22:11.925Z,101614.01
2018-05-06T23:24:37.814Z,101621.88
2018-05-06T23:27:03.685Z,101618.52
2018-05-06T23:29:29.569Z,101617.34
2018-05-06T23:31:55.458Z,101617.48
2018-05-06T23:34:21.430Z,101620.44
2018-05-06T23:36:47.283Z,101608.12
2018-05-06T23:39:13.159Z,101609.63
2018-05-06T23:41:39.061Z,101609.52
2018-05-06T23:44:04.956Z,101608.37
2018-05-06T23:46:30.851Z,101610.59
2018-05-06T23:48:56.732Z,101612.73
2018-05-06T23:51:22.620Z,101615.03
2018-05-06T23:53:48.491Z,101620.80
2018-05-06T23:56:14.388Z,101624.39
2018-05-06T23:58:40.315Z,101619.84
